sensor_id;sensor_type;location;lat;lon;timestamp;P1;durP1;ratioP1;P2;durP2;ratioP2
32788;SDS011;19141;48.980;8.410;2023-06-19T04:22:32;6.70;;;3.20;;
32788;SDS011;19141;48.980;8.410;2023-06-19T04:25:01;7.43;;;3.40;;
32788;SDS011;19141;48.980;8.410;2023-06-19T04:27:27;9.77;;;4.63;;
32788;SDS011;19141;48.980;8.410;2023-06-19T04:29:53;7.88;;;3.78;;
32788;SDS011;19141;48.980;8.410;2023-06-19T04:32:18;4.97;;;2.75;;
32788;SDS011;19141;48.980;8.410;2023-06-19T04:34:44;6.88;;;3.92;;
32788;SDS011;19141;48.980;8.410;2023-06-19T04:37:11;6.78;;;2.92;;
32788;SDS011;19141;48.980;8.410;2023-06-19T04:39:37;5.85;;;3.17;;
32788;SDS011;19141;48.980;8.410;2023-06-19T04:42:02;6.68;;;3.38;;
32788;SDS011;19141;48.980;8.410;2023-06-19T04:44:27;5.63;;;3.50;;
32788;SDS011;19141;48.980;8.410;2023-06-19T04:46:55;6.85;;;3.38;;
32788;SDS011;19141;48.980;8.410;2023-06-19T04:49:27;5.97;;;3.30;;
32788;SDS011;19141;48.980;8.410;2023-06-19T04:51:55;6.05;;;3.03;;
32788;SDS011;19141;48.980;8.410;2023-06-19T04:54:20;4.30;;;2.78;;
32788;SDS011;19141;48.980;8.410;2023-06-19T04:56:46;5.18;;;2.30;;
32788;SDS011;19141;48.980;8.410;2023-06-19T04:59:11;3.65;;;2.45;;
32788;SDS011;19141;48.980;8.410;2023-06-19T05:01:36;3.95;;;2.30;;
32788;SDS011;19141;48.980;8.410;2023-06-19T05:04:05;3.55;;;2.30;;
32788;SDS011;19141;48.980;8.410;2023-06-19T05:06:31;5.60;;;2.60;;
32788;SDS011;19141;48.980;8.410;2023-06-19T05:08:56;2.70;;;2.10;;
32788;SDS011;19141;48.980;8.410;2023-06-19T05:11:21;5.68;;;3.05;;
32788;SDS011;19141;48.980;8.410;2023-06-19T05:13:47;2.47;;;2.17;;
32788;SDS011;19141;48.980;8.410;2023-06-19T05:16:12;2.78;;;2.10;;
32788;SDS011;19141;48.980;8.410;2023-06-19T05:18:41;3.63;;;2.28;;
32788;SDS011;19141;48.980;8.410;2023-06-19T05:21:08;4.32;;;2.35;;
32788;SDS011;19141;48.980;8.410;2023-06-19T05:23:33;3.50;;;2.28;;
32788;SDS011;19141;48.980;8.410;2023-06-19T05:26:00;3.58;;;2.35;;
32788;SDS011;19141;48.980;8.410;2023-06-19T05:28:25;3.10;;;2.17;;
32788;SDS011;19141;48.980;8.410;2023-06-19T05:30:50;2.72;;;2.08;;
32788;SDS011;19141;48.980;8.410;2023-06-19T05:33:16;4.10;;;2.42;;
32788;SDS011;19141;48.980;8.410;2023-06-19T05:35:42;2.65;;;1.67;;
32788;SDS011;19141;48.980;8.410;2023-06-19T05:38:17;3.42;;;2.42;;
32788;SDS011;19141;48.980;8.410;2023-06-19T05:40:42;3.85;;;2.25;;
32788;SDS011;19141;48.980;8.410;2023-06-19T05:43:08;2.65;;;1.88;;
32788;SDS011;19141;48.980;8.410;2023-06-19T05:45:34;5.10;;;2.42;;
32788;SDS011;19141;48.980;8.410;2023-06-19T05:47:59;4.00;;;2.10;;
32788;SDS011;19141;48.980;8.410;2023-06-19T05:50:24;3.08;;;2.38;;
32788;SDS011;19141;48.980;8.410;2023-06-19T05:52:50;2.97;;;2.03;;
32788;SDS011;19141;48.980;8.410;2023-06-19T05:55:15;2.40;;;2.05;;
32788;SDS011;19141;48.980;8.410;2023-06-19T05:57:41;3.25;;;1.95;;
32788;SDS011;19141;48.980;8.410;2023-06-19T06:00:07;2.97;;;2.20;;
32788;SDS011;19141;48.980;8.410;2023-06-19T06:02:37;2.83;;;2.17;;
32788;SDS011;19141;48.980;8.410;2023-06-19T06:05:03;3.45;;;2.17;;
32788;SDS011;19141;48.980;8.410;2023-06-19T06:07:29;2.30;;;1.90;;
32788;SDS011;19141;48.980;8.410;2023-06-19T06:09:55;1.88;;;1.52;;
32788;SDS011;19141;48.980;8.410;2023-06-19T06:12:20;2.38;;;2.08;;
32788;SDS011;19141;48.980;8.410;2023-06-19T06:14:46;3.35;;;1.52;;
32788;SDS011;19141;48.980;8.410;2023-06-19T06:17:11;2.40;;;2.17;;
32788;SDS011;19141;48.980;8.410;2023-06-19T06:19:37;2.10;;;1.80;;
32788;SDS011;19141;48.980;8.410;2023-06-19T06:22:02;2.15;;;1.60;;
32788;SDS011;19141;48.980;8.410;2023-06-19T06:24:28;2.05;;;1.70;;
32788;SDS011;19141;48.980;8.410;2023-06-19T06:26:53;3.03;;;2.00;;
32788;SDS011;19141;48.980;8.410;2023-06-19T06:29:20;2.72;;;2.10;;
32788;SDS011;19141;48.980;8.410;2023-06-19T06:31:45;2.05;;;1.80;;
32788;SDS011;19141;48.980;8.410;2023-06-19T06:34:12;2.43;;;1.97;;
32788;SDS011;19141;48.980;8.410;2023-06-19T06:36:37;2.97;;;1.58;;
32788;SDS011;19141;48.980;8.410;2023-06-19T06:39:03;2.28;;;1.75;;
32788;SDS011;19141;48.980;8.410;2023-06-19T06:41:28;1.70;;;1.60;;
32788;SDS011;19141;48.980;8.410;2023-06-19T06:43:54;2.75;;;1.42;;
32788;SDS011;19141;48.980;8.410;2023-06-19T06:46:20;3.55;;;1.60;;
32788;SDS011;19141;48.980;8.410;2023-06-19T06:48:46;2.65;;;1.40;;
32788;SDS011;19141;48.980;8.410;2023-06-19T06:51:11;1.80;;;1.50;;
32788;SDS011;19141;48.980;8.410;2023-06-19T06:53:37;1.88;;;1.63;;
32788;SDS011;19141;48.980;8.410;2023-06-19T06:56:02;1.55;;;1.42;;
32788;SDS011;19141;48.980;8.410;2023-06-19T06:58:28;1.58;;;1.30;;
32788;SDS011;19141;48.980;8.410;2023-06-19T07:00:54;1.65;;;1.20;;
32788;SDS011;19141;48.980;8.410;2023-06-19T07:03:20;1.90;;;1.23;;
32788;SDS011;19141;48.980;8.410;2023-06-19T07:05:47;1.67;;;1.40;;
32788;SDS011;19141;48.980;8.410;2023-06-19T07:08:12;2.38;;;1.60;;
32788;SDS011;19141;48.980;8.410;2023-06-19T07:10:38;3.13;;;1.63;;
32788;SDS011;19141;48.980;8.410;2023-06-19T07:13:03;1.52;;;1.13;;
32788;SDS011;19141;48.980;8.410;2023-06-19T07:15:29;1.25;;;1.15;;
32788;SDS011;19141;48.980;8.410;2023-06-19T07:17:55;1.75;;;1.38;;
32788;SDS011;19141;48.980;8.410;2023-06-19T07:20:21;1.60;;;1.50;;
32788;SDS011;19141;48.980;8.410;2023-06-19T07:22:46;1.83;;;1.52;;
32788;SDS011;19141;48.980;8.410;2023-06-19T07:25:12;1.73;;;1.42;;
32788;SDS011;19141;48.980;8.410;2023-06-19T07:27:39;1.48;;;1.20;;
32788;SDS011;19141;48.980;8.410;2023-06-19T07:32:31;1.98;;;1.77;;
32788;SDS011;19141;48.980;8.410;2023-06-19T07:34:56;1.92;;;1.25;;
32788;SDS011;19141;48.980;8.410;2023-06-19T07:37:22;1.95;;;1.50;;
32788;SDS011;19141;48.980;8.410;2023-06-19T07:39:48;1.73;;;1.63;;
32788;SDS011;19141;48.980;8.410;2023-06-19T07:44:41;2.00;;;1.50;;
32788;SDS011;19141;48.980;8.410;2023-06-19T07:47:07;1.83;;;1.50;;
32788;SDS011;19141;48.980;8.410;2023-06-19T07:49:33;2.30;;;1.40;;
32788;SDS011;19141;48.980;8.410;2023-06-19T07:51:59;1.75;;;1.52;;
32788;SDS011;19141;48.980;8.410;2023-06-19T07:54:24;2.10;;;1.90;;
32788;SDS011;19141;48.980;8.410;2023-06-19T07:56:49;4.00;;;1.77;;
32788;SDS011;19141;48.980;8.410;2023-06-19T07:59:15;2.20;;;1.60;;
32788;SDS011;19141;48.980;8.410;2023-06-19T08:01:41;1.80;;;1.58;;
32788;SDS011;19141;48.980;8.410;2023-06-19T08:04:07;3.10;;;1.80;;
32788;SDS011;19141;48.980;8.410;2023-06-19T08:06:32;2.33;;;1.83;;
32788;SDS011;19141;48.980;8.410;2023-06-19T08:08:58;2.13;;;1.75;;
32788;SDS011;19141;48.980;8.410;2023-06-19T08:11:23;2.35;;;1.60;;
32788;SDS011;19141;48.980;8.410;2023-06-19T08:13:49;3.15;;;2.00;;
32788;SDS011;19141;48.980;8.410;2023-06-19T08:16:14;2.30;;;1.90;;
32788;SDS011;19141;48.980;8.410;2023-06-19T08:18:40;3.00;;;1.92;;
32788;SDS011;19141;48.980;8.410;2023-06-19T08:21:05;2.95;;;1.63;;
32788;SDS011;19141;48.980;8.410;2023-06-19T08:23:30;2.28;;;1.85;;
32788;SDS011;19141;48.980;8.410;2023-06-19T08:25:56;3.25;;;2.30;;
32788;SDS011;19141;48.980;8.410;2023-06-19T08:28:21;4.25;;;1.83;;
32788;SDS011;19141;48.980;8.410;2023-06-19T08:30:47;2.85;;;2.17;;
32788;SDS011;19141;48.980;8.410;2023-06-19T08:33:13;2.63;;;1.80;;
32788;SDS011;19141;48.980;8.410;2023-06-19T08:35:38;2.75;;;2.00;;
32788;SDS011;19141;48.980;8.410;2023-06-19T08:38:04;2.40;;;1.83;;
32788;SDS011;19141;48.980;8.410;2023-06-19T08:40:29;2.28;;;1.80;;
32788;SDS011;19141;48.980;8.410;2023-06-19T08:42:55;3.20;;;1.70;;
32788;SDS011;19141;48.980;8.410;2023-06-19T08:45:21;2.42;;;2.00;;
32788;SDS011;19141;48.980;8.410;2023-06-19T08:47:47;2.00;;;1.75;;
32788;SDS011;19141;48.980;8.410;2023-06-19T08:50:13;2.00;;;1.67;;
32788;SDS011;19141;48.980;8.410;2023-06-19T08:52:39;2.53;;;1.80;;
32788;SDS011;19141;48.980;8.410;2023-06-19T08:55:05;2.20;;;1.90;;
32788;SDS011;19141;48.980;8.410;2023-06-19T08:57:37;2.85;;;2.20;;
32788;SDS011;19141;48.980;8.410;2023-06-19T09:00:04;4.53;;;1.98;;
32788;SDS011;19141;48.980;8.410;2023-06-19T09:02:43;2.40;;;1.80;;
32788;SDS011;19141;48.980;8.410;2023-06-19T09:05:10;2.13;;;1.92;;
32788;SDS011;19141;48.980;8.410;2023-06-19T09:07:40;1.80;;;1.52;;
32788;SDS011;19141;48.980;8.410;2023-06-19T09:10:16;2.30;;;1.95;;
32788;SDS011;19141;48.980;8.410;2023-06-19T09:12:58;3.00;;;1.90;;
32788;SDS011;19141;48.980;8.410;2023-06-19T09:15:29;2.15;;;1.95;;
32788;SDS011;19141;48.980;8.410;2023-06-19T09:18:08;2.17;;;1.63;;
32788;SDS011;19141;48.980;8.410;2023-06-19T09:20:42;2.05;;;1.85;;
32788;SDS011;19141;48.980;8.410;2023-06-19T09:23:11;2.67;;;2.00;;
32788;SDS011;19141;48.980;8.410;2023-06-19T09:25:44;2.20;;;2.00;;
32788;SDS011;19141;48.980;8.410;2023-06-19T09:28:17;4.53;;;1.95;;
32788;SDS011;19141;48.980;8.410;2023-06-19T09:30:51;3.60;;;1.95;;
32788;SDS011;19141;48.980;8.410;2023-06-19T09:33:21;2.28;;;2.08;;
32788;SDS011;19141;48.980;8.410;2023-06-19T09:35:49;2.42;;;1.92;;
32788;SDS011;19141;48.980;8.410;2023-06-19T09:38:16;2.60;;;1.92;;
32788;SDS011;19141;48.980;8.410;2023-06-19T09:40:44;3.00;;;2.40;;
32788;SDS011;19141;48.980;8.410;2023-06-19T09:43:12;2.40;;;2.20;;
32788;SDS011;19141;48.980;8.410;2023-06-19T09:45:42;2.70;;;2.50;;
32788;SDS011;19141;48.980;8.410;2023-06-19T09:48:09;4.15;;;2.47;;
32788;SDS011;19141;48.980;8.410;2023-06-19T09:50:50;4.40;;;2.50;;
32788;SDS011;19141;48.980;8.410;2023-06-19T09:53:19;2.75;;;2.20;;
32788;SDS011;19141;48.980;8.410;2023-06-19T09:55:47;2.60;;;2.00;;
32788;SDS011;19141;48.980;8.410;2023-06-19T09:58:15;2.40;;;2.20;;
32788;SDS011;19141;48.980;8.410;2023-06-19T10:00:42;2.75;;;1.90;;
32788;SDS011;19141;48.980;8.410;2023-06-19T10:03:12;2.40;;;2.17;;
32788;SDS011;19141;48.980;8.410;2023-06-19T10:05:38;2.30;;;2.10;;
32788;SDS011;19141;48.980;8.410;2023-06-19T10:08:03;2.30;;;2.03;;
32788;SDS011;19141;48.980;8.410;2023-06-19T10:10:30;3.15;;;2.38;;
32788;SDS011;19141;48.980;8.410;2023-06-19T10:12:57;2.08;;;1.88;;
32788;SDS011;19141;48.980;8.410;2023-06-19T10:15:25;2.70;;;2.10;;
32788;SDS011;19141;48.980;8.410;2023-06-19T10:17:53;3.97;;;2.20;;
32788;SDS011;19141;48.980;8.410;2023-06-19T10:25:31;3.83;;;2.05;;
32788;SDS011;19141;48.980;8.410;2023-06-19T10:27:59;2.35;;;1.95;;
32788;SDS011;19141;48.980;8.410;2023-06-19T10:30:24;2.80;;;2.60;;
32788;SDS011;19141;48.980;8.410;2023-06-19T10:32:50;3.17;;;2.08;;
32788;SDS011;19141;48.980;8.410;2023-06-19T10:35:17;2.42;;;2.17;;
32788;SDS011;19141;48.980;8.410;2023-06-19T10:37:46;3.65;;;2.35;;
32788;SDS011;19141;48.980;8.410;2023-06-19T10:40:13;2.45;;;1.98;;
32788;SDS011;19141;48.980;8.410;2023-06-19T10:42:41;2.33;;;2.08;;
32788;SDS011;19141;48.980;8.410;2023-06-19T10:45:10;2.90;;;2.17;;
32788;SDS011;19141;48.980;8.410;2023-06-19T10:47:38;2.10;;;1.85;;
32788;SDS011;19141;48.980;8.410;2023-06-19T10:50:04;2.10;;;1.90;;
32788;SDS011;19141;48.980;8.410;2023-06-19T10:52:34;2.70;;;2.10;;
32788;SDS011;19141;48.980;8.410;2023-06-19T10:55:00;2.40;;;2.13;;
32788;SDS011;19141;48.980;8.410;2023-06-19T10:57:31;2.72;;;2.20;;
32788;SDS011;19141;48.980;8.410;2023-06-19T10:59:57;3.60;;;1.92;;
32788;SDS011;19141;48.980;8.410;2023-06-19T11:02:24;2.60;;;2.10;;
32788;SDS011;19141;48.980;8.410;2023-06-19T11:04:53;2.47;;;1.95;;
32788;SDS011;19141;48.980;8.410;2023-06-19T11:07:20;2.10;;;1.80;;
32788;SDS011;19141;48.980;8.410;2023-06-19T11:09:47;2.67;;;2.28;;
32788;SDS011;19141;48.980;8.410;2023-06-19T11:12:18;2.47;;;2.28;;
32788;SDS011;19141;48.980;8.410;2023-06-19T11:14:44;2.33;;;2.05;;
32788;SDS011;19141;48.980;8.410;2023-06-19T11:17:10;1.60;;;1.50;;
32788;SDS011;19141;48.980;8.410;2023-06-19T11:19:35;2.73;;;2.00;;
32788;SDS011;19141;48.980;8.410;2023-06-19T11:22:03;2.60;;;2.20;;
32788;SDS011;19141;48.980;8.410;2023-06-19T11:24:29;3.17;;;2.10;;
32788;SDS011;19141;48.980;8.410;2023-06-19T11:26:55;2.67;;;2.23;;
32788;SDS011;19141;48.980;8.410;2023-06-19T11:29:29;2.17;;;1.90;;
32788;SDS011;19141;48.980;8.410;2023-06-19T11:32:10;2.15;;;1.77;;
32788;SDS011;19141;48.980;8.410;2023-06-19T11:34:39;2.25;;;1.85;;
32788;SDS011;19141;48.980;8.410;2023-06-19T11:37:15;3.10;;;1.83;;
32788;SDS011;19141;48.980;8.410;2023-06-19T11:39:43;2.53;;;2.03;;
32788;SDS011;19141;48.980;8.410;2023-06-19T11:42:10;2.30;;;2.10;;
32788;SDS011;19141;48.980;8.410;2023-06-19T11:44:51;2.63;;;2.10;;
32788;SDS011;19141;48.980;8.410;2023-06-19T11:47:20;2.97;;;2.42;;
32788;SDS011;19141;48.980;8.410;2023-06-19T11:49:49;3.10;;;1.90;;
32788;SDS011;19141;48.980;8.410;2023-06-19T11:52:15;3.28;;;2.00;;
32788;SDS011;19141;48.980;8.410;2023-06-19T11:54:41;3.38;;;2.65;;
32788;SDS011;19141;48.980;8.410;2023-06-19T11:57:08;2.40;;;2.20;;
32788;SDS011;19141;48.980;8.410;2023-06-19T11:59:38;2.47;;;2.00;;
32788;SDS011;19141;48.980;8.410;2023-06-19T12:02:06;3.28;;;2.40;;
32788;SDS011;19141;48.980;8.410;2023-06-19T12:04:32;2.67;;;2.30;;
32788;SDS011;19141;48.980;8.410;2023-06-19T12:06:58;2.15;;;1.92;;
32788;SDS011;19141;48.980;8.410;2023-06-19T12:09:24;3.28;;;2.25;;
32788;SDS011;19141;48.980;8.410;2023-06-19T12:11:50;2.57;;;2.13;;
32788;SDS011;19141;48.980;8.410;2023-06-19T12:14:15;2.83;;;2.43;;
32788;SDS011;19141;48.980;8.410;2023-06-19T12:16:41;2.37;;;1.97;;
32788;SDS011;19141;48.980;8.410;2023-06-19T12:19:06;2.67;;;2.30;;
32788;SDS011;19141;48.980;8.410;2023-06-19T12:21:31;2.53;;;2.10;;
32788;SDS011;19141;48.980;8.410;2023-06-19T12:23:57;3.10;;;2.00;;
32788;SDS011;19141;48.980;8.410;2023-06-19T12:26:22;2.10;;;1.80;;
32788;SDS011;19141;48.980;8.410;2023-06-19T12:28:50;2.22;;;2.03;;
32788;SDS011;19141;48.980;8.410;2023-06-19T12:31:16;3.17;;;2.20;;
32788;SDS011;19141;48.980;8.410;2023-06-19T12:33:42;3.00;;;2.05;;
32788;SDS011;19141;48.980;8.410;2023-06-19T12:36:13;2.70;;;2.10;;
32788;SDS011;19141;48.980;8.410;2023-06-19T12:38:41;3.08;;;2.35;;
32788;SDS011;19141;48.980;8.410;2023-06-19T12:41:06;2.83;;;2.03;;
32788;SDS011;19141;48.980;8.410;2023-06-19T12:43:32;4.07;;;2.10;;
32788;SDS011;19141;48.980;8.410;2023-06-19T12:45:58;2.40;;;2.10;;
32788;SDS011;19141;48.980;8.410;2023-06-19T12:48:27;2.45;;;2.13;;
32788;SDS011;19141;48.980;8.410;2023-06-19T12:50:52;2.33;;;2.13;;
32788;SDS011;19141;48.980;8.410;2023-06-19T12:53:18;2.80;;;2.13;;
32788;SDS011;19141;48.980;8.410;2023-06-19T12:55:43;2.50;;;2.13;;
32788;SDS011;19141;48.980;8.410;2023-06-19T12:58:09;3.00;;;2.27;;
32788;SDS011;19141;48.980;8.410;2023-06-19T13:00:36;3.55;;;2.10;;
32788;SDS011;19141;48.980;8.410;2023-06-19T13:03:02;2.67;;;2.08;;
32788;SDS011;19141;48.980;8.410;2023-06-19T13:05:28;2.50;;;2.30;;
32788;SDS011;19141;48.980;8.410;2023-06-19T13:07:54;2.20;;;1.90;;
32788;SDS011;19141;48.980;8.410;2023-06-19T13:10:19;2.63;;;2.20;;
32788;SDS011;19141;48.980;8.410;2023-06-19T13:12:45;2.50;;;2.20;;
32788;SDS011;19141;48.980;8.410;2023-06-19T13:15:11;1.73;;;1.60;;
32788;SDS011;19141;48.980;8.410;2023-06-19T13:17:36;2.30;;;1.80;;
32788;SDS011;19141;48.980;8.410;2023-06-19T13:20:01;3.20;;;2.10;;
32788;SDS011;19141;48.980;8.410;2023-06-19T13:22:29;2.63;;;2.33;;
32788;SDS011;19141;48.980;8.410;2023-06-19T13:24:55;2.50;;;2.22;;
32788;SDS011;19141;48.980;8.410;2023-06-19T13:27:20;2.73;;;2.27;;
32788;SDS011;19141;48.980;8.410;2023-06-19T13:29:46;3.23;;;2.00;;
32788;SDS011;19141;48.980;8.410;2023-06-19T13:32:11;3.20;;;1.90;;
32788;SDS011;19141;48.980;8.410;2023-06-19T13:34:36;2.67;;;2.03;;
32788;SDS011;19141;48.980;8.410;2023-06-19T13:37:02;2.53;;;1.83;;
32788;SDS011;19141;48.980;8.410;2023-06-19T13:39:27;2.67;;;2.22;;
32788;SDS011;19141;48.980;8.410;2023-06-19T13:41:53;3.17;;;2.00;;
32788;SDS011;19141;48.980;8.410;2023-06-19T13:44:19;2.88;;;2.10;;
32788;SDS011;19141;48.980;8.410;2023-06-19T13:46:44;2.35;;;1.98;;
32788;SDS011;19141;48.980;8.410;2023-06-19T13:49:09;2.70;;;2.08;;
32788;SDS011;19141;48.980;8.410;2023-06-19T13:51:36;2.67;;;2.20;;
32788;SDS011;19141;48.980;8.410;2023-06-19T13:54:01;3.70;;;1.88;;
32788;SDS011;19141;48.980;8.410;2023-06-19T13:56:29;3.03;;;2.30;;
32788;SDS011;19141;48.980;8.410;2023-06-19T13:58:55;2.40;;;2.00;;
32788;SDS011;19141;48.980;8.410;2023-06-19T14:01:20;3.80;;;1.98;;
32788;SDS011;19141;48.980;8.410;2023-06-19T14:03:46;2.72;;;2.38;;
32788;SDS011;19141;48.980;8.410;2023-06-19T14:06:11;2.40;;;2.10;;
32788;SDS011;19141;48.980;8.410;2023-06-19T14:08:38;3.95;;;2.03;;
32788;SDS011;19141;48.980;8.410;2023-06-19T14:11:04;2.58;;;2.22;;
32788;SDS011;19141;48.980;8.410;2023-06-19T14:13:30;2.80;;;2.22;;
32788;SDS011;19141;48.980;8.410;2023-06-19T14:15:57;1.63;;;1.43;;
32788;SDS011;19141;48.980;8.410;2023-06-19T14:18:22;2.47;;;1.90;;
32788;SDS011;19141;48.980;8.410;2023-06-19T14:20:47;2.50;;;2.10;;
32788;SDS011;19141;48.980;8.410;2023-06-19T14:23:13;2.50;;;2.10;;
32788;SDS011;19141;48.980;8.410;2023-06-19T14:25:38;1.98;;;1.55;;
32788;SDS011;19141;48.980;8.410;2023-06-19T14:28:04;2.55;;;2.10;;
32788;SDS011;19141;48.980;8.410;2023-06-19T14:30:32;2.10;;;1.90;;
32788;SDS011;19141;48.980;8.410;2023-06-19T14:32:57;2.92;;;2.33;;
32788;SDS011;19141;48.980;8.410;2023-06-19T14:35:22;3.08;;;2.33;;
32788;SDS011;19141;48.980;8.410;2023-06-19T14:37:48;2.67;;;2.00;;
32788;SDS011;19141;48.980;8.410;2023-06-19T14:40:13;2.50;;;2.15;;
32788;SDS011;19141;48.980;8.410;2023-06-19T14:42:39;2.60;;;2.17;;
32788;SDS011;19141;48.980;8.410;2023-06-19T14:45:05;3.83;;;2.03;;
32788;SDS011;19141;48.980;8.410;2023-06-19T14:47:31;2.55;;;2.28;;
32788;SDS011;19141;48.980;8.410;2023-06-19T14:49:57;3.47;;;2.40;;
32788;SDS011;19141;48.980;8.410;2023-06-19T14:52:22;2.70;;;2.38;;
32788;SDS011;19141;48.980;8.410;2023-06-19T14:54:47;2.87;;;2.30;;
32788;SDS011;19141;48.980;8.410;2023-06-19T14:57:13;3.03;;;2.57;;
32788;SDS011;19141;48.980;8.410;2023-06-19T14:59:38;2.85;;;2.35;;
32788;SDS011;19141;48.980;8.410;2023-06-19T15:02:04;2.53;;;2.33;;
32788;SDS011;19141;48.980;8.410;2023-06-19T15:04:32;2.35;;;2.15;;
32788;SDS011;19141;48.980;8.410;2023-06-19T15:06:58;3.53;;;2.35;;
32788;SDS011;19141;48.980;8.410;2023-06-19T15:09:23;2.88;;;2.55;;
32788;SDS011;19141;48.980;8.410;2023-06-19T15:11:49;2.90;;;2.08;;
32788;SDS011;19141;48.980;8.410;2023-06-19T15:14:14;2.30;;;1.95;;
32788;SDS011;19141;48.980;8.410;2023-06-19T15:16:39;3.33;;;2.58;;
32788;SDS011;19141;48.980;8.410;2023-06-19T15:19:05;2.30;;;2.08;;
32788;SDS011;19141;48.980;8.410;2023-06-19T15:21:30;3.10;;;2.65;;
32788;SDS011;19141;48.980;8.410;2023-06-19T15:23:56;2.83;;;2.53;;
32788;SDS011;19141;48.980;8.410;2023-06-19T15:26:22;2.97;;;2.33;;
32788;SDS011;19141;48.980;8.410;2023-06-19T15:28:47;3.05;;;2.33;;
32788;SDS011;19141;48.980;8.410;2023-06-19T15:31:13;3.47;;;2.55;;
32788;SDS011;19141;48.980;8.410;2023-06-19T15:33:38;2.78;;;2.20;;
32788;SDS011;19141;48.980;8.410;2023-06-19T15:36:04;2.47;;;2.00;;
32788;SDS011;19141;48.980;8.410;2023-06-19T15:38:30;4.03;;;2.35;;
32788;SDS011;19141;48.980;8.410;2023-06-19T15:40:55;3.35;;;2.72;;
32788;SDS011;19141;48.980;8.410;2023-06-19T15:43:21;2.97;;;2.30;;
32788;SDS011;19141;48.980;8.410;2023-06-19T15:45:53;4.95;;;2.75;;
32788;SDS011;19141;48.980;8.410;2023-06-19T15:48:20;2.42;;;2.15;;
32788;SDS011;19141;48.980;8.410;2023-06-19T15:50:45;2.67;;;2.20;;
32788;SDS011;19141;48.980;8.410;2023-06-19T15:53:11;3.22;;;2.30;;
32788;SDS011;19141;48.980;8.410;2023-06-19T15:55:36;3.42;;;2.15;;
32788;SDS011;19141;48.980;8.410;2023-06-19T15:58:02;3.72;;;2.45;;
32788;SDS011;19141;48.980;8.410;2023-06-19T16:00:28;2.63;;;2.42;;
32788;SDS011;19141;48.980;8.410;2023-06-19T16:02:53;3.72;;;2.38;;
32788;SDS011;19141;48.980;8.410;2023-06-19T16:05:18;2.30;;;2.00;;
32788;SDS011;19141;48.980;8.410;2023-06-19T16:07:44;2.90;;;2.38;;
32788;SDS011;19141;48.980;8.410;2023-06-19T16:10:09;2.70;;;2.28;;
32788;SDS011;19141;48.980;8.410;2023-06-19T16:12:35;3.47;;;2.78;;
32788;SDS011;19141;48.980;8.410;2023-06-19T16:15:01;4.18;;;3.22;;
32788;SDS011;19141;48.980;8.410;2023-06-19T16:17:26;3.60;;;2.60;;
32788;SDS011;19141;48.980;8.410;2023-06-19T16:19:51;5.60;;;3.50;;
32788;SDS011;19141;48.980;8.410;2023-06-19T16:22:17;5.20;;;3.22;;
32788;SDS011;19141;48.980;8.410;2023-06-19T16:24:42;2.63;;;2.33;;
32788;SDS011;19141;48.980;8.410;2023-06-19T16:27:08;3.63;;;2.60;;
32788;SDS011;19141;48.980;8.410;2023-06-19T16:29:33;4.03;;;2.95;;
32788;SDS011;19141;48.980;8.410;2023-06-19T16:31:58;2.80;;;2.30;;
32788;SDS011;19141;48.980;8.410;2023-06-19T16:34:25;3.63;;;2.92;;
32788;SDS011;19141;48.980;8.410;2023-06-19T16:36:50;2.90;;;2.60;;
32788;SDS011;19141;48.980;8.410;2023-06-19T16:39:16;12.75;;;9.75;;
32788;SDS011;19141;48.980;8.410;2023-06-19T16:41:45;4.78;;;3.30;;
32788;SDS011;19141;48.980;8.410;2023-06-19T16:44:11;4.40;;;2.60;;
32788;SDS011;19141;48.980;8.410;2023-06-19T16:46:37;3.15;;;2.55;;
32788;SDS011;19141;48.980;8.410;2023-06-19T16:49:03;2.60;;;2.35;;
32788;SDS011;19141;48.980;8.410;2023-06-19T16:51:29;2.87;;;2.30;;
32788;SDS011;19141;48.980;8.410;2023-06-19T16:53:54;3.05;;;2.63;;
32788;SDS011;19141;48.980;8.410;2023-06-19T16:56:19;3.50;;;2.45;;
32788;SDS011;19141;48.980;8.410;2023-06-19T16:58:45;4.70;;;3.80;;
32788;SDS011;19141;48.980;8.410;2023-06-19T17:01:11;2.78;;;2.25;;
32788;SDS011;19141;48.980;8.410;2023-06-19T17:03:37;3.50;;;3.10;;
32788;SDS011;19141;48.980;8.410;2023-06-19T17:06:03;3.30;;;2.67;;
32788;SDS011;19141;48.980;8.410;2023-06-19T17:08:28;4.22;;;3.30;;
32788;SDS011;19141;48.980;8.410;2023-06-19T17:10:53;4.72;;;3.50;;
32788;SDS011;19141;48.980;8.410;2023-06-19T17:13:19;3.92;;;2.75;;
32788;SDS011;19141;48.980;8.410;2023-06-19T17:15:44;3.72;;;2.97;;
32788;SDS011;19141;48.980;8.410;2023-06-19T17:18:10;3.60;;;2.88;;
32788;SDS011;19141;48.980;8.410;2023-06-19T17:20:35;5.57;;;3.10;;
32788;SDS011;19141;48.980;8.410;2023-06-19T17:23:00;3.28;;;2.58;;
32788;SDS011;19141;48.980;8.410;2023-06-19T17:25:26;3.40;;;2.90;;
32788;SDS011;19141;48.980;8.410;2023-06-19T17:27:53;3.70;;;2.75;;
32788;SDS011;19141;48.980;8.410;2023-06-19T17:32:47;3.40;;;2.43;;
32788;SDS011;19141;48.980;8.410;2023-06-19T17:35:13;2.78;;;2.40;;
32788;SDS011;19141;48.980;8.410;2023-06-19T17:37:40;3.22;;;2.40;;
32788;SDS011;19141;48.980;8.410;2023-06-19T17:40:06;3.13;;;2.58;;
32788;SDS011;19141;48.980;8.410;2023-06-19T17:42:38;3.17;;;2.88;;
32788;SDS011;19141;48.980;8.410;2023-06-19T17:45:04;3.78;;;3.10;;
32788;SDS011;19141;48.980;8.410;2023-06-19T17:47:30;3.50;;;2.83;;
32788;SDS011;19141;48.980;8.410;2023-06-19T17:49:56;3.00;;;2.63;;
32788;SDS011;19141;48.980;8.410;2023-06-19T17:52:21;4.28;;;2.60;;
32788;SDS011;19141;48.980;8.410;2023-06-19T17:54:47;3.20;;;2.88;;
32788;SDS011;19141;48.980;8.410;2023-06-19T17:57:16;3.70;;;2.80;;
32788;SDS011;19141;48.980;8.410;2023-06-19T17:59:42;3.63;;;3.17;;
32788;SDS011;19141;48.980;8.410;2023-06-19T18:02:07;4.40;;;3.05;;
32788;SDS011;19141;48.980;8.410;2023-06-19T18:04:32;3.90;;;3.25;;
32788;SDS011;19141;48.980;8.410;2023-06-19T18:06:58;4.30;;;3.30;;
32788;SDS011;19141;48.980;8.410;2023-06-19T18:09:23;4.50;;;3.30;;
32788;SDS011;19141;48.980;8.410;2023-06-19T18:11:49;3.25;;;2.83;;
32788;SDS011;19141;48.980;8.410;2023-06-19T18:14:14;5.53;;;3.20;;
32788;SDS011;19141;48.980;8.410;2023-06-19T18:16:40;4.88;;;2.78;;
32788;SDS011;19141;48.980;8.410;2023-06-19T18:19:05;3.83;;;2.83;;
32788;SDS011;19141;48.980;8.410;2023-06-19T18:21:30;3.58;;;3.05;;
32788;SDS011;19141;48.980;8.410;2023-06-19T18:23:56;3.00;;;2.70;;
32788;SDS011;19141;48.980;8.410;2023-06-19T18:26:21;3.83;;;2.80;;
32788;SDS011;19141;48.980;8.410;2023-06-19T18:28:47;3.00;;;2.70;;
32788;SDS011;19141;48.980;8.410;2023-06-19T18:31:12;3.08;;;2.78;;
32788;SDS011;19141;48.980;8.410;2023-06-19T18:33:38;4.35;;;3.20;;
32788;SDS011;19141;48.980;8.410;2023-06-19T18:36:03;3.63;;;3.03;;
32788;SDS011;19141;48.980;8.410;2023-06-19T18:38:30;2.97;;;2.40;;
32788;SDS011;19141;48.980;8.410;2023-06-19T18:40:56;3.22;;;2.83;;
32788;SDS011;19141;48.980;8.410;2023-06-19T18:43:21;4.28;;;2.83;;
32788;SDS011;19141;48.980;8.410;2023-06-19T18:45:46;2.78;;;2.30;;
32788;SDS011;19141;48.980;8.410;2023-06-19T18:48:12;4.15;;;3.17;;
32788;SDS011;19141;48.980;8.410;2023-06-19T18:50:37;4.13;;;3.20;;
32788;SDS011;19141;48.980;8.410;2023-06-19T18:53:03;2.92;;;2.63;;
32788;SDS011;19141;48.980;8.410;2023-06-19T18:55:28;2.88;;;2.42;;
32788;SDS011;19141;48.980;8.410;2023-06-19T18:57:53;3.20;;;2.50;;
32788;SDS011;19141;48.980;8.410;2023-06-19T19:00:19;3.08;;;2.50;;
32788;SDS011;19141;48.980;8.410;2023-06-19T19:02:45;3.10;;;2.80;;
32788;SDS011;19141;48.980;8.410;2023-06-19T19:05:10;4.20;;;3.15;;
32788;SDS011;19141;48.980;8.410;2023-06-19T19:07:36;4.50;;;3.25;;
32788;SDS011;19141;48.980;8.410;2023-06-19T19:10:01;8.90;;;5.82;;
32788;SDS011;19141;48.980;8.410;2023-06-19T19:12:27;5.13;;;4.55;;
32788;SDS011;19141;48.980;8.410;2023-06-19T19:14:52;7.63;;;4.80;;
32788;SDS011;19141;48.980;8.410;2023-06-19T19:17:18;6.72;;;5.15;;